Sagar Sampada — VWXS — position and weather

sailwx.info

Track history (hours):
 
Tides and Currents Weather Stations Pressure Air Temp Water Temp Dewpoint Dewpoint Depression Visibility Wind Speed Wind Dir Waves Ship Positions

Oceanographic research ship Sagar Sampada (India)

Detailed information on ship capabilities available from University of Delaware's Ocean Information Center.

Last reported at 2018-Feb-23 12:08 UTC. Time now 2018-Feb-23 14:25 UTC.
Position N 20°24' E 069°12'.

Type: Ship (hazmat cat A). MMSI: 419323000.

Wind from 360 at 10 knots

Barometer 1009.4 mb
Air temperature 27.5 ° C

Date/timePositionNaut miles runAvg speedWind from/ knotsBaromVisibWave heightAir tempDewpointWater temp
2018-Feb-23 12:08N 20°24' E 069°12'38 6.3 360 / 101009.4 27.5
2018-Feb-23 06:08N 21°00' E 069°00'18 5.9 340 / 101012.8 25.3
2018-Feb-23 03:08N 21°06' E 068°42'21 6.9 330 / 61012.0 25.0
2018-Feb-23 00:08N 21°18' E 068°24'23 7.7 320 / 81009.7 24.1
2018-Feb-22 21:08N 21°24' E 068°00'13 4.4 280 / 61010.1 23.8
2018-Feb-22 18:08N 21°36' E 067°54'43 7.2 310 / 81011.4 24.4
2018-Feb-22 12:08N 22°18' E 068°06'6 0.9 300 / 101009.4 25.3
2018-Feb-22 06:08N 22°18' E 068°12'0 0.0 320 / 81012.7 24.4
2018-Feb-22 03:08N 22°18' E 068°12'0 0.0 300 / 81011.6 24.4
2018-Feb-22 00:08N 22°18' E 068°12'0 0.0 270 / 61009.6 23.9
2018-Feb-21 21:08N 22°18' E 068°12'6 1.9 280 / 171009.9 24.0
2018-Feb-21 18:08N 22°18' E 068°18'22 6.3 300 / 121011.4 24.2
2018-Feb-21 14:38N 22°18' E 068°42'21 6.8 280 / 101010.7 24.3
2018-Feb-21 11:38N 22°30' E 069°00'6 2.2 270 / 101009.5 24.5
2018-Feb-21 09:08N 22°30' E 069°06'0 0.0 310 / 81010.7 25.8
2018-Feb-21 06:08N 22°30' E 069°06'0 0.0 350 / 21013.4 26.3
2018-Feb-21 03:08N 22°30' E 069°06'0 0.0 350 / 4 23.8
2018-Feb-21 00:08N 22°30' E 069°06'0 0.0 320 / 81010.1 22.9
2018-Feb-20 21:08N 22°30' E 069°06'0 0.0 320 / 81010.4 22.9
2018-Feb-20 18:08N 22°30' E 069°06'0 0.0 320 / 61012.4 23.3
2018-Feb-20 15:08N 22°30' E 069°06'0 0.0 300 / 81012.2 23.9
2018-Feb-20 08:38N 22°30' E 069°06'0 0.0 310 / 101011.9 25.2
2018-Feb-20 05:38N 22°30' E 069°06'0 0.0 300 / 4 25.7
2018-Feb-20 03:08N 22°30' E 069°06'0 0.0 350 / 2
2018-Feb-20 00:08N 22°30' E 069°06'0 0.0 320 / 6
2018-Feb-19 21:08N 22°30' E 069°06'0 0.0 320 / 101011.1 -4.5
2018-Feb-19 18:08N 22°30' E 069°06'0 0.0 320 / 61012.6 23.3
2018-Feb-19 15:08N 22°30' E 069°06'0 0.0 310 / 6 23.9
2018-Feb-19 12:08N 22°30' E 069°06'0 0.0 310 / 8 25.2
2018-Feb-19 08:38N 22°30' E 069°06'6 1.8 280 / 6 24.2
2018-Feb-19 05:38N 22°30' E 069°00'0 0.0 010 / 4
2018-Feb-19 02:38N 22°30' E 069°00'0 0.0 350 / 4
2018-Feb-19 00:08N 22°30' E 069°00'6 1.8 310 / 8
2018-Feb-18 21:08N 22°30' E 069°06'0 0.0 310 / 61010.2 7.0
2018-Feb-18 18:08N 22°30' E 069°06'6 1.8 270 / 61011.1 23.1
2018-Feb-18 15:08N 22°30' E 069°00'0 0.0 240 / 81010.8 23.5
2018-Feb-18 11:38N 22°30' E 069°00'6 2.2 160 26.0
2018-Feb-18 09:08N 22°30' E 069°06'6 0.6 300 / 81010.9 24.1
2018-Feb-18 00:08N 22°30' E 069°00'6 1.8 280 / 101010.9 22.0
2018-Feb-17 21:08N 22°30' E 069°06'0 0.0 300 / 81011.1 21.7
2018-Feb-17 18:08N 22°30' E 069°06'6 1.8 300 / 121012.3 22.8
2018-Feb-17 15:08N 22°30' E 069°00'6 0.9 290 / 101012.2 23.0
2018-Feb-17 09:08N 22°30' E 069°06'6 1.8 290 / 81013.1 24.0
2018-Feb-17 06:08N 22°30' E 069°00'0 0.0 320 / 61016.5 22.7
2018-Feb-17 00:08N 22°30' E 069°00'0 0.0 320 / 61014.4 22.7
2018-Feb-16 21:08N 22°30' E 069°00'0 0.0 310 / 101015.3 23.1
2018-Feb-16 18:08N 22°30' E 069°00'0 0.0 330 / 121016.6 23.4
2018-Feb-16 15:08N 22°30' E 069°00'0 0.0 310 / 61016.4 23.6
2018-Feb-16 12:08N 22°30' E 069°00'0 0.0 290 / 61015.8 24.2
2018-Feb-16 09:08N 22°30' E 069°00'0 0.0 270 / 41016.9 25.2
2018-Feb-16 06:08N 22°30' E 069°00'0 0.0 020 / 61019.8 24.2
2018-Feb-15 23:38N 22°30' E 069°00'0 0.0 340 / 81017.4 23.4
2018-Feb-15 21:08N 22°30' E 069°00'6 1.8 020 / 61017.8 23.8
2018-Feb-15 18:08N 22°30' E 069°06'0 0.0 300 / 101018.0 23.5
2018-Feb-15 15:08N 22°30' E 069°06'6 1.8 320 / 101018.1 24.1
2018-Feb-15 12:08N 22°30' E 069°00'0 0.0 300 / 81017.4 24.3
2018-Feb-15 09:08N 22°30' E 069°00'0 0.0 100 / 61017.8 25.4
2018-Feb-15 06:08N 22°30' E 069°00'6 1.6 060 / 21020.7 24.9
2018-Feb-15 02:38N 22°30' E 068°54'18 7.2 1019.7 22.6
2018-Feb-15 00:08N 22°12' E 068°54'0 0.0 040 / 141018.1 22.7
2018-Feb-14 21:08N 22°12' E 068°54'0 0.0 040 / 121018.4 23.2
2018-Feb-14 18:08N 22°12' E 068°54'0 0.0 040 / 171018.9 24.1
2018-Feb-14 15:08N 22°12' E 068°54'0 0.0 060 / 121019.1 25.6
2018-Feb-14 12:08N 22°12' E 068°54'0 0.0 040 / 17 28.5
2018-Feb-14 09:08N 22°12' E 068°54'13 3.6 070 / 161018.1 27.4
2018-Feb-14 05:38N 22°06' E 068°42'16 5.5 040 / 141021.5 24.1
2018-Feb-14 02:38N 21°54' E 068°30'16 6.5 050 / 191019.5 23.8
2018-Feb-14 00:08N 21°42' E 068°18'6 1.9 350 / 191018.1 24.2
2018-Feb-13 21:08N 21°42' E 068°12'16 5.5 340 / 211018.6 24.9
2018-Feb-13 18:08N 21°30' E 068°00'8 2.7 010 / 161019.4 24.4
2018-Feb-13 15:08N 21°24' E 067°54'13 4.2 010 / 161019.2 24.1
2018-Feb-13 12:08N 21°18' E 067°42'   350 / 141018.1 23.8
Track history (hours):
 
Tides and Currents Weather Stations Pressure Air Temp Water Temp Dewpoint Dewpoint Depression Visibility Wind Speed Wind Dir Waves Ship Positions

Oceanographic research ship Sagar Sampada (India)

Detailed information on ship capabilities available from University of Delaware's Ocean Information Center.

Last reported at 2018-Feb-23 12:08 UTC. Time now 2018-Feb-23 14:25 UTC.
Position N 20°24' E 069°12'.

Type: Ship (hazmat cat A). MMSI: 419323000.

Wind from 360 at 10 knots

Barometer 1009.4 mb
Air temperature 27.5 ° C

Date/timePositionNaut miles runAvg speedWind from/ knotsBaromVisibWave heightAir tempDewpointWater temp
2018-Feb-23 12:08N 20°24' E 069°12'38 6.3 360 / 101009.4 27.5
2018-Feb-23 06:08N 21°00' E 069°00'18 5.9 340 / 101012.8 25.3
2018-Feb-23 03:08N 21°06' E 068°42'21 6.9 330 / 61012.0 25.0
2018-Feb-23 00:08N 21°18' E 068°24'23 7.7 320 / 81009.7 24.1
2018-Feb-22 21:08N 21°24' E 068°00'13 4.4 280 / 61010.1 23.8
2018-Feb-22 18:08N 21°36' E 067°54'43 7.2 310 / 81011.4 24.4
2018-Feb-22 12:08N 22°18' E 068°06'6 0.9 300 / 101009.4 25.3
2018-Feb-22 06:08N 22°18' E 068°12'0 0.0 320 / 81012.7 24.4
2018-Feb-22 03:08N 22°18' E 068°12'0 0.0 300 / 81011.6 24.4
2018-Feb-22 00:08N 22°18' E 068°12'0 0.0 270 / 61009.6 23.9
2018-Feb-21 21:08N 22°18' E 068°12'6 1.9 280 / 171009.9 24.0
2018-Feb-21 18:08N 22°18' E 068°18'22 6.3 300 / 121011.4 24.2
2018-Feb-21 14:38N 22°18' E 068°42'21 6.8 280 / 101010.7 24.3
2018-Feb-21 11:38N 22°30' E 069°00'6 2.2 270 / 101009.5 24.5
2018-Feb-21 09:08N 22°30' E 069°06'0 0.0 310 / 81010.7 25.8
2018-Feb-21 06:08N 22°30' E 069°06'0 0.0 350 / 21013.4 26.3
2018-Feb-21 03:08N 22°30' E 069°06'0 0.0 350 / 4 23.8
2018-Feb-21 00:08N 22°30' E 069°06'0 0.0 320 / 81010.1 22.9
2018-Feb-20 21:08N 22°30' E 069°06'0 0.0 320 / 81010.4 22.9
2018-Feb-20 18:08N 22°30' E 069°06'0 0.0 320 / 61012.4 23.3
2018-Feb-20 15:08N 22°30' E 069°06'0 0.0 300 / 81012.2 23.9
2018-Feb-20 08:38N 22°30' E 069°06'0 0.0 310 / 101011.9 25.2
2018-Feb-20 05:38N 22°30' E 069°06'0 0.0 300 / 4 25.7
2018-Feb-20 03:08N 22°30' E 069°06'0 0.0 350 / 2
2018-Feb-20 00:08N 22°30' E 069°06'0 0.0 320 / 6
2018-Feb-19 21:08N 22°30' E 069°06'0 0.0 320 / 101011.1 -4.5
2018-Feb-19 18:08N 22°30' E 069°06'0 0.0 320 / 61012.6 23.3
2018-Feb-19 15:08N 22°30' E 069°06'0 0.0 310 / 6 23.9
2018-Feb-19 12:08N 22°30' E 069°06'0 0.0 310 / 8 25.2
2018-Feb-19 08:38N 22°30' E 069°06'6 1.8 280 / 6 24.2
2018-Feb-19 05:38N 22°30' E 069°00'0 0.0 010 / 4
2018-Feb-19 02:38N 22°30' E 069°00'0 0.0 350 / 4
2018-Feb-19 00:08N 22°30' E 069°00'6 1.8 310 / 8
2018-Feb-18 21:08N 22°30' E 069°06'0 0.0 310 / 61010.2 7.0
2018-Feb-18 18:08N 22°30' E 069°06'6 1.8 270 / 61011.1 23.1
2018-Feb-18 15:08N 22°30' E 069°00'0 0.0 240 / 81010.8 23.5
2018-Feb-18 11:38N 22°30' E 069°00'6 2.2 160 26.0
2018-Feb-18 09:08N 22°30' E 069°06'6 0.6 300 / 81010.9 24.1
2018-Feb-18 00:08N 22°30' E 069°00'6 1.8 280 / 101010.9 22.0
2018-Feb-17 21:08N 22°30' E 069°06'0 0.0 300 / 81011.1 21.7
2018-Feb-17 18:08N 22°30' E 069°06'6 1.8 300 / 121012.3 22.8
2018-Feb-17 15:08N 22°30' E 069°00'6 0.9 290 / 101012.2 23.0
2018-Feb-17 09:08N 22°30' E 069°06'6 1.8 290 / 81013.1 24.0
2018-Feb-17 06:08N 22°30' E 069°00'0 0.0 320 / 61016.5 22.7
2018-Feb-17 00:08N 22°30' E 069°00'0 0.0 320 / 61014.4 22.7
2018-Feb-16 21:08N 22°30' E 069°00'0 0.0 310 / 101015.3 23.1
2018-Feb-16 18:08N 22°30' E 069°00'0 0.0 330 / 121016.6 23.4
2018-Feb-16 15:08N 22°30' E 069°00'0 0.0 310 / 61016.4 23.6
2018-Feb-16 12:08N 22°30' E 069°00'0 0.0 290 / 61015.8 24.2
2018-Feb-16 09:08N 22°30' E 069°00'0 0.0 270 / 41016.9 25.2
2018-Feb-16 06:08N 22°30' E 069°00'0 0.0 020 / 61019.8 24.2
2018-Feb-15 23:38N 22°30' E 069°00'0 0.0 340 / 81017.4 23.4
2018-Feb-15 21:08N 22°30' E 069°00'6 1.8 020 / 61017.8 23.8
2018-Feb-15 18:08N 22°30' E 069°06'0 0.0 300 / 101018.0 23.5
2018-Feb-15 15:08N 22°30' E 069°06'6 1.8 320 / 101018.1 24.1
2018-Feb-15 12:08N 22°30' E 069°00'0 0.0 300 / 81017.4 24.3
2018-Feb-15 09:08N 22°30' E 069°00'0 0.0 100 / 61017.8 25.4
2018-Feb-15 06:08N 22°30' E 069°00'6 1.6 060 / 21020.7 24.9
2018-Feb-15 02:38N 22°30' E 068°54'18 7.2 1019.7 22.6
2018-Feb-15 00:08N 22°12' E 068°54'0 0.0 040 / 141018.1 22.7
2018-Feb-14 21:08N 22°12' E 068°54'0 0.0 040 / 121018.4 23.2
2018-Feb-14 18:08N 22°12' E 068°54'0 0.0 040 / 171018.9 24.1
2018-Feb-14 15:08N 22°12' E 068°54'0 0.0 060 / 121019.1 25.6
2018-Feb-14 12:08N 22°12' E 068°54'0 0.0 040 / 17 28.5
2018-Feb-14 09:08N 22°12' E 068°54'13 3.6 070 / 161018.1 27.4
2018-Feb-14 05:38N 22°06' E 068°42'16 5.5 040 / 141021.5 24.1
2018-Feb-14 02:38N 21°54' E 068°30'16 6.5 050 / 191019.5 23.8
2018-Feb-14 00:08N 21°42' E 068°18'6 1.9 350 / 191018.1 24.2
2018-Feb-13 21:08N 21°42' E 068°12'16 5.5 340 / 211018.6 24.9
2018-Feb-13 18:08N 21°30' E 068°00'8 2.7 010 / 161019.4 24.4
2018-Feb-13 15:08N 21°24' E 067°54'13 4.2 010 / 161019.2 24.1
2018-Feb-13 12:08N 21°18' E 067°42'   350 / 141018.1 23.8

Dump ship's entire track history